sensor_id;sensor_type;location;lat;lon;timestamp;pressure;altitude;pressure_sealevel;temperature;humidity
43430;BME280;29028;43.234;27.896;2022-07-29T04:01:38;100154.91;;;21.35;96.86
43430;BME280;29028;43.234;27.896;2022-07-29T04:02:02;100153.22;;;21.29;96.67
43430;BME280;29028;43.234;27.896;2022-07-29T04:02:24;100154.84;;;21.30;96.97
43430;BME280;29028;43.234;27.896;2022-07-29T04:02:46;100146.13;;;21.33;97.34
43430;BME280;29028;43.234;27.896;2022-07-29T04:03:09;100150.53;;;21.34;98.09
43430;BME280;29028;43.234;27.896;2022-07-29T04:03:31;100156.00;;;21.34;98.40
43430;BME280;29028;43.234;27.896;2022-07-29T04:03:52;100151.81;;;21.27;98.43
43430;BME280;29028;43.234;27.896;2022-07-29T04:04:14;100150.78;;;21.33;99.29
43430;BME280;29028;43.234;27.896;2022-07-29T04:04:35;100146.19;;;21.38;98.56
43430;BME280;29028;43.234;27.896;2022-07-29T04:04:57;100159.63;;;21.45;98.00
43430;BME280;29028;43.234;27.896;2022-07-29T04:05:18;100156.03;;;21.39;98.06
43430;BME280;29028;43.234;27.896;2022-07-29T04:05:39;100150.53;;;21.34;97.84
43430;BME280;29028;43.234;27.896;2022-07-29T04:06:01;100147.25;;;21.37;98.04
43430;BME280;29028;43.234;27.896;2022-07-29T04:06:23;100151.38;;;21.40;97.64
43430;BME280;29028;43.234;27.896;2022-07-29T04:06:46;100152.22;;;21.40;97.04
43430;BME280;29028;43.234;27.896;2022-07-29T04:07:11;100150.63;;;21.44;96.88
43430;BME280;29028;43.234;27.896;2022-07-29T04:07:32;100144.84;;;21.46;96.87
43430;BME280;29028;43.234;27.896;2022-07-29T04:07:53;100150.66;;;21.49;96.54
43430;BME280;29028;43.234;27.896;2022-07-29T04:08:15;100158.88;;;21.49;96.79
43430;BME280;29028;43.234;27.896;2022-07-29T04:08:35;100154.47;;;21.48;96.99
43430;BME280;29028;43.234;27.896;2022-07-29T04:08:56;100150.66;;;21.49;96.75
43430;BME280;29028;43.234;27.896;2022-07-29T04:09:17;100159.97;;;21.53;96.50
43430;BME280;29028;43.234;27.896;2022-07-29T04:09:38;100150.69;;;21.54;96.48
43430;BME280;29028;43.234;27.896;2022-07-29T04:10:00;100156.69;;;21.51;96.16
43430;BME280;29028;43.234;27.896;2022-07-29T04:10:21;100143.78;;;21.47;96.00
43430;BME280;29028;43.234;27.896;2022-07-29T04:10:43;100161.03;;;21.47;96.22
43430;BME280;29028;43.234;27.896;2022-07-29T04:11:05;100147.91;;;21.49;96.55
43430;BME280;29028;43.234;27.896;2022-07-29T04:11:27;100156.13;;;21.49;95.87
43430;BME280;29028;43.234;27.896;2022-07-29T04:11:48;100156.19;;;21.54;96.20
43430;BME280;29028;43.234;27.896;2022-07-29T04:12:09;100156.44;;;21.53;95.88
43430;BME280;29028;43.234;27.896;2022-07-29T04:12:30;100148.81;;;21.60;95.89
43430;BME280;29028;43.234;27.896;2022-07-29T04:12:51;100154.28;;;21.60;95.43
43430;BME280;29028;43.234;27.896;2022-07-29T04:13:13;100153.66;;;21.48;95.94
43430;BME280;29028;43.234;27.896;2022-07-29T04:13:34;100158.53;;;21.46;96.52
43430;BME280;29028;43.234;27.896;2022-07-29T04:13:54;100150.13;;;21.52;96.53
43430;BME280;29028;43.234;27.896;2022-07-29T04:14:15;100155.59;;;21.52;96.21
43430;BME280;29028;43.234;27.896;2022-07-29T04:14:37;100149.56;;;21.50;96.16
43430;BME280;29028;43.234;27.896;2022-07-29T04:14:58;100145.50;;;21.58;96.25
43430;BME280;29028;43.234;27.896;2022-07-29T04:15:19;100159.88;;;21.70;95.83
43430;BME280;29028;43.234;27.896;2022-07-29T04:15:40;100159.34;;;21.73;95.40
43430;BME280;29028;43.234;27.896;2022-07-29T04:16:02;100154.44;;;21.75;95.09
43430;BME280;29028;43.234;27.896;2022-07-29T04:16:22;100152.47;;;21.70;94.85
43430;BME280;29028;43.234;27.896;2022-07-29T04:16:45;100151.97;;;21.73;94.55
43430;BME280;29028;43.234;27.896;2022-07-29T04:17:06;100146.22;;;21.75;94.83
43430;BME280;29028;43.234;27.896;2022-07-29T04:17:28;100157.75;;;21.77;94.57
43430;BME280;29028;43.234;27.896;2022-07-29T04:17:48;100146.94;;;21.65;94.89
43430;BME280;29028;43.234;27.896;2022-07-29T04:18:09;100148.00;;;21.64;94.92
43430;BME280;29028;43.234;27.896;2022-07-29T04:18:30;100158.16;;;21.64;95.40
43430;BME280;29028;43.234;27.896;2022-07-29T04:18:52;100149.41;;;21.67;95.26
43430;BME280;29028;43.234;27.896;2022-07-29T04:19:13;100151.56;;;21.60;95.49
43430;BME280;29028;43.234;27.896;2022-07-29T04:19:34;100156.19;;;21.59;95.76
43430;BME280;29028;43.234;27.896;2022-07-29T04:19:54;100157.63;;;21.67;95.39
43430;BME280;29028;43.234;27.896;2022-07-29T04:20:16;100141.72;;;21.64;95.15
43430;BME280;29028;43.234;27.896;2022-07-29T04:20:37;100153.88;;;21.73;94.94
43430;BME280;29028;43.234;27.896;2022-07-29T04:20:58;100150.91;;;21.79;94.59
43430;BME280;29028;43.234;27.896;2022-07-29T04:21:21;100152.03;;;21.83;94.18
43430;BME280;29028;43.234;27.896;2022-07-29T04:21:42;100147.91;;;21.81;93.82
43430;BME280;29028;43.234;27.896;2022-07-29T04:22:05;100148.47;;;21.83;94.11
43430;BME280;29028;43.234;27.896;2022-07-29T04:22:26;100149.25;;;21.78;93.78
43430;BME280;29028;43.234;27.896;2022-07-29T04:22:47;100148.25;;;21.89;93.88
43430;BME280;29028;43.234;27.896;2022-07-29T04:23:09;100149.09;;;21.95;93.72
43430;BME280;29028;43.234;27.896;2022-07-29T04:23:30;100146.63;;;21.93;93.62
43430;BME280;29028;43.234;27.896;2022-07-29T04:23:53;100149.34;;;21.88;93.43
43430;BME280;29028;43.234;27.896;2022-07-29T04:24:14;100152.34;;;21.87;93.65
43430;BME280;29028;43.234;27.896;2022-07-29T04:24:36;100148.75;;;21.86;93.82
43430;BME280;29028;43.234;27.896;2022-07-29T04:24:57;100152.59;;;21.85;94.28
43430;BME280;29028;43.234;27.896;2022-07-29T04:25:17;100150.72;;;21.91;94.31
43430;BME280;29028;43.234;27.896;2022-07-29T04:25:38;100143.88;;;21.93;94.31
43430;BME280;29028;43.234;27.896;2022-07-29T04:26:01;100149.34;;;21.88;94.26
43430;BME280;29028;43.234;27.896;2022-07-29T04:26:22;100146.34;;;21.95;94.43
43430;BME280;29028;43.234;27.896;2022-07-29T04:26:42;100146.38;;;22.00;94.25
43430;BME280;29028;43.234;27.896;2022-07-29T04:27:03;100152.72;;;22.05;94.02
43430;BME280;29028;43.234;27.896;2022-07-29T04:27:26;100142.06;;;22.09;93.98
43430;BME280;29028;43.234;27.896;2022-07-29T04:27:46;100150.28;;;22.09;93.41
43430;BME280;29028;43.234;27.896;2022-07-29T04:28:23;100144.78;;;22.09;93.57
43430;BME280;29028;43.234;27.896;2022-07-29T04:28:44;100147.00;;;22.12;93.72
43430;BME280;29028;43.234;27.896;2022-07-29T04:29:06;100148.66;;;22.13;93.39
43430;BME280;29028;43.234;27.896;2022-07-29T04:29:27;100139.84;;;22.06;93.50
43430;BME280;29028;43.234;27.896;2022-07-29T04:29:47;100159.34;;;22.09;93.49
43430;BME280;29028;43.234;27.896;2022-07-29T04:30:09;100149.22;;;22.15;93.45
43430;BME280;29028;43.234;27.896;2022-07-29T04:30:30;100151.16;;;22.14;93.41
43430;BME280;29028;43.234;27.896;2022-07-29T04:30:52;100145.41;;;22.21;93.17
43430;BME280;29028;43.234;27.896;2022-07-29T04:31:13;100152.84;;;22.25;92.95
43430;BME280;29028;43.234;27.896;2022-07-29T04:31:34;100141.84;;;22.20;92.97
43430;BME280;29028;43.234;27.896;2022-07-29T04:31:56;100150.94;;;22.31;92.46
43430;BME280;29028;43.234;27.896;2022-07-29T04:32:18;100143.81;;;22.30;92.71
43430;BME280;29028;43.234;27.896;2022-07-29T04:32:39;100139.41;;;22.24;92.67
43430;BME280;29028;43.234;27.896;2022-07-29T04:33:01;100153.66;;;22.26;92.95
43430;BME280;29028;43.234;27.896;2022-07-29T04:33:22;100144.66;;;22.30;92.94
43430;BME280;29028;43.234;27.896;2022-07-29T04:33:44;100152.03;;;22.30;93.22
43430;BME280;29028;43.234;27.896;2022-07-29T04:34:05;100154.22;;;22.33;93.08
43430;BME280;29028;43.234;27.896;2022-07-29T04:34:25;100155.91;;;22.34;92.90
43430;BME280;29028;43.234;27.896;2022-07-29T04:34:46;100152.88;;;22.35;92.93
43430;BME280;29028;43.234;27.896;2022-07-29T04:35:08;100147.16;;;22.42;92.51
43430;BME280;29028;43.234;27.896;2022-07-29T04:35:29;100156.28;;;22.47;92.19
43430;BME280;29028;43.234;27.896;2022-07-29T04:35:50;100155.47;;;22.52;92.04
43430;BME280;29028;43.234;27.896;2022-07-29T04:36:11;100153.81;;;22.51;91.89
43430;BME280;29028;43.234;27.896;2022-07-29T04:36:33;100152.47;;;22.53;92.35
43430;BME280;29028;43.234;27.896;2022-07-29T04:36:54;100155.72;;;22.50;92.23
43430;BME280;29028;43.234;27.896;2022-07-29T04:37:15;100147.50;;;22.55;92.01
43430;BME280;29028;43.234;27.896;2022-07-29T04:37:36;100155.75;;;22.55;91.92
43430;BME280;29028;43.234;27.896;2022-07-29T04:37:57;100147.00;;;22.63;92.11
43430;BME280;29028;43.234;27.896;2022-07-29T04:38:19;100148.66;;;22.64;91.84
43430;BME280;29028;43.234;27.896;2022-07-29T04:38:40;100154.16;;;22.64;91.60
43430;BME280;29028;43.234;27.896;2022-07-29T04:39:01;100149.47;;;22.65;91.78
43430;BME280;29028;43.234;27.896;2022-07-29T04:39:22;100150.59;;;22.69;91.56
43430;BME280;29028;43.234;27.896;2022-07-29T04:39:44;100145.41;;;22.77;90.95
43430;BME280;29028;43.234;27.896;2022-07-29T04:40:06;100141.56;;;22.78;90.77
43430;BME280;29028;43.234;27.896;2022-07-29T04:40:27;100143.75;;;22.81;90.38
43430;BME280;29028;43.234;27.896;2022-07-29T04:40:48;100146.25;;;22.83;90.39
43430;BME280;29028;43.234;27.896;2022-07-29T04:41:09;100136.31;;;22.67;90.52
43430;BME280;29028;43.234;27.896;2022-07-29T04:41:30;100148.94;;;22.68;90.76
43430;BME280;29028;43.234;27.896;2022-07-29T04:41:51;100139.59;;;22.64;91.10
43430;BME280;29028;43.234;27.896;2022-07-29T04:42:12;100143.72;;;22.66;91.16
43430;BME280;29028;43.234;27.896;2022-07-29T04:42:33;100145.63;;;22.61;91.04
43430;BME280;29028;43.234;27.896;2022-07-29T04:42:55;100152.47;;;22.58;91.47
43430;BME280;29028;43.234;27.896;2022-07-29T04:43:16;100150.25;;;22.55;91.75
43430;BME280;29028;43.234;27.896;2022-07-29T04:43:37;100147.25;;;22.57;91.88
43430;BME280;29028;43.234;27.896;2022-07-29T04:43:57;100149.72;;;22.53;92.04
43430;BME280;29028;43.234;27.896;2022-07-29T04:44:21;100140.66;;;22.58;92.12
43430;BME280;29028;43.234;27.896;2022-07-29T04:44:43;100147.59;;;22.70;91.56
43430;BME280;29028;43.234;27.896;2022-07-29T04:45:05;100144.84;;;22.75;91.47
43430;BME280;29028;43.234;27.896;2022-07-29T04:45:26;100147.31;;;22.82;91.08
43430;BME280;29028;43.234;27.896;2022-07-29T04:45:47;100146.25;;;22.83;90.84
43430;BME280;29028;43.234;27.896;2022-07-29T04:46:08;100141.59;;;22.88;90.97
43430;BME280;29028;43.234;27.896;2022-07-29T04:46:29;100139.13;;;22.92;90.83
43430;BME280;29028;43.234;27.896;2022-07-29T04:46:50;100149.31;;;23.01;90.36
43430;BME280;29028;43.234;27.896;2022-07-29T04:47:13;100144.91;;;23.05;89.66
43430;BME280;29028;43.234;27.896;2022-07-29T04:47:33;100147.66;;;23.10;89.28
43430;BME280;29028;43.234;27.896;2022-07-29T04:47:55;100147.66;;;23.10;89.35
43430;BME280;29028;43.234;27.896;2022-07-29T04:48:17;100135.56;;;23.06;88.43
43430;BME280;29028;43.234;27.896;2022-07-29T04:48:38;100138.03;;;23.08;88.62
43430;BME280;29028;43.234;27.896;2022-07-29T04:48:59;100151.00;;;23.12;88.98
43430;BME280;29028;43.234;27.896;2022-07-29T04:49:19;100140.25;;;23.11;89.03
43430;BME280;29028;43.234;27.896;2022-07-29T04:49:43;100134.47;;;23.02;89.12
43430;BME280;29028;43.234;27.896;2022-07-29T04:50:05;100152.63;;;23.13;89.27
43430;BME280;29028;43.234;27.896;2022-07-29T04:50:27;100151.31;;;23.21;89.16
43430;BME280;29028;43.234;27.896;2022-07-29T04:50:48;100149.09;;;23.18;89.02
43430;BME280;29028;43.234;27.896;2022-07-29T04:51:10;100150.69;;;23.14;88.79
43430;BME280;29028;43.234;27.896;2022-07-29T04:51:31;100155.66;;;23.17;88.84
43430;BME280;29028;43.234;27.896;2022-07-29T04:51:51;100154.31;;;23.24;89.07
43430;BME280;29028;43.234;27.896;2022-07-29T04:52:12;100155.72;;;23.37;88.58
43430;BME280;29028;43.234;27.896;2022-07-29T04:52:34;100146.38;;;23.43;87.78
43430;BME280;29028;43.234;27.896;2022-07-29T04:52:55;100140.59;;;23.39;87.36
43430;BME280;29028;43.234;27.896;2022-07-29T04:53:19;100149.66;;;23.40;87.31
43430;BME280;29028;43.234;27.896;2022-07-29T04:53:40;100148.00;;;23.39;87.39
43430;BME280;29028;43.234;27.896;2022-07-29T04:54:02;100147.75;;;23.40;87.53
43430;BME280;29028;43.234;27.896;2022-07-29T04:54:23;100151.31;;;23.46;87.45
43430;BME280;29028;43.234;27.896;2022-07-29T04:54:44;100145.00;;;23.50;87.24
43430;BME280;29028;43.234;27.896;2022-07-29T04:55:06;100146.09;;;23.54;87.07
43430;BME280;29028;43.234;27.896;2022-07-29T04:55:27;100147.47;;;23.57;87.10
43430;BME280;29028;43.234;27.896;2022-07-29T04:55:48;100154.91;;;23.61;86.61
43430;BME280;29028;43.234;27.896;2022-07-29T04:56:09;100151.03;;;23.67;86.48
43430;BME280;29028;43.234;27.896;2022-07-29T04:56:31;100151.31;;;23.71;86.25
43430;BME280;29028;43.234;27.896;2022-07-29T04:56:52;100144.44;;;23.68;86.14
43430;BME280;29028;43.234;27.896;2022-07-29T04:57:13;100151.59;;;23.69;86.11
43430;BME280;29028;43.234;27.896;2022-07-29T04:57:34;100147.19;;;23.73;85.92
43430;BME280;29028;43.234;27.896;2022-07-29T04:57:56;100144.44;;;23.73;85.51
43430;BME280;29028;43.234;27.896;2022-07-29T04:58:17;100145.25;;;23.79;84.83
43430;BME280;29028;43.234;27.896;2022-07-29T04:58:38;100146.88;;;23.80;84.76
43430;BME280;29028;43.234;27.896;2022-07-29T04:58:59;100154.88;;;23.66;84.71
43430;BME280;29028;43.234;27.896;2022-07-29T04:59:21;100152.41;;;23.65;84.64
43430;BME280;29028;43.234;27.896;2022-07-29T04:59:42;100148.28;;;23.62;84.82
43430;BME280;29028;43.234;27.896;2022-07-29T05:00:04;100139.22;;;23.62;85.37
43430;BME280;29028;43.234;27.896;2022-07-29T05:00:25;100148.00;;;23.69;84.82
43430;BME280;29028;43.234;27.896;2022-07-29T05:00:47;100140.84;;;23.68;84.69
43430;BME280;29028;43.234;27.896;2022-07-29T05:01:08;100155.69;;;23.77;84.32
43430;BME280;29028;43.234;27.896;2022-07-29T05:01:29;100141.13;;;23.71;84.16
43430;BME280;29028;43.234;27.896;2022-07-29T05:01:49;100149.63;;;23.80;83.83
43430;BME280;29028;43.234;27.896;2022-07-29T05:02:13;100148.00;;;23.89;83.54
43430;BME280;29028;43.234;27.896;2022-07-29T05:02:33;100153.22;;;24.00;82.87
43430;BME280;29028;43.234;27.896;2022-07-29T05:02:55;100140.59;;;23.99;82.63
43430;BME280;29028;43.234;27.896;2022-07-29T05:03:15;100156.78;;;24.11;82.28
43430;BME280;29028;43.234;27.896;2022-07-29T05:03:37;100146.88;;;24.10;82.18
43430;BME280;29028;43.234;27.896;2022-07-29T05:03:58;100150.47;;;24.10;82.06
43430;BME280;29028;43.234;27.896;2022-07-29T05:04:19;100146.88;;;24.15;82.04
43430;BME280;29028;43.234;27.896;2022-07-29T05:04:40;100148.50;;;24.16;82.03
43430;BME280;29028;43.234;27.896;2022-07-29T05:05:01;100140.81;;;24.13;82.09
43430;BME280;29028;43.234;27.896;2022-07-29T05:05:22;100140.78;;;24.18;81.69
43430;BME280;29028;43.234;27.896;2022-07-29T05:05:43;100145.47;;;24.17;81.83
43430;BME280;29028;43.234;27.896;2022-07-29T05:06:04;100141.09;;;24.11;81.93
43430;BME280;29028;43.234;27.896;2022-07-29T05:06:25;100134.22;;;24.14;81.84
43430;BME280;29028;43.234;27.896;2022-07-29T05:06:47;100141.59;;;24.28;81.47
43430;BME280;29028;43.234;27.896;2022-07-29T05:07:08;100142.97;;;24.31;81.30
43430;BME280;29028;43.234;27.896;2022-07-29T05:07:29;100141.03;;;24.31;81.02
43430;BME280;29028;43.234;27.896;2022-07-29T05:07:50;100145.13;;;24.34;81.04
43430;BME280;29028;43.234;27.896;2022-07-29T05:08:12;100142.09;;;24.40;80.88
43430;BME280;29028;43.234;27.896;2022-07-29T05:08:32;100142.94;;;24.41;80.92
43430;BME280;29028;43.234;27.896;2022-07-29T05:08:53;100149.22;;;24.46;80.28
43430;BME280;29028;43.234;27.896;2022-07-29T05:09:14;100142.03;;;24.55;80.09
43430;BME280;29028;43.234;27.896;2022-07-29T05:09:35;100133.22;;;24.53;79.37
43430;BME280;29028;43.234;27.896;2022-07-29T05:09:57;100140.94;;;24.61;79.16
43430;BME280;29028;43.234;27.896;2022-07-29T05:10:18;100133.78;;;24.60;79.08
43430;BME280;29028;43.234;27.896;2022-07-29T05:10:39;100133.19;;;24.68;79.16
43430;BME280;29028;43.234;27.896;2022-07-29T05:10:59;100131.25;;;24.74;78.80
43430;BME280;29028;43.234;27.896;2022-07-29T05:11:21;100130.13;;;24.80;78.71
43430;BME280;29028;43.234;27.896;2022-07-29T05:11:42;100139.19;;;24.80;77.96
43430;BME280;29028;43.234;27.896;2022-07-29T05:12:03;100133.91;;;24.89;77.92
43430;BME280;29028;43.234;27.896;2022-07-29T05:12:24;100142.50;;;24.82;78.14
43430;BME280;29028;43.234;27.896;2022-07-29T05:12:45;100138.59;;;24.88;78.06
43430;BME280;29028;43.234;27.896;2022-07-29T05:13:07;100128.09;;;24.90;77.52
43430;BME280;29028;43.234;27.896;2022-07-29T05:13:28;100138.28;;;24.95;77.21
43430;BME280;29028;43.234;27.896;2022-07-29T05:13:49;100134.91;;;25.03;77.11
43430;BME280;29028;43.234;27.896;2022-07-29T05:14:10;100141.81;;;25.00;76.99
43430;BME280;29028;43.234;27.896;2022-07-29T05:14:31;100132.13;;;25.08;76.60
43430;BME280;29028;43.234;27.896;2022-07-29T05:14:56;100138.19;;;25.10;76.62
43430;BME280;29028;43.234;27.896;2022-07-29T05:15:17;100141.19;;;25.13;76.44
43430;BME280;29028;43.234;27.896;2022-07-29T05:15:38;100138.72;;;25.12;76.41
43430;BME280;29028;43.234;27.896;2022-07-29T05:15:59;100138.75;;;25.07;76.74
43430;BME280;29028;43.234;27.896;2022-07-29T05:16:20;100135.25;;;24.91;76.71
43430;BME280;29028;43.234;27.896;2022-07-29T05:16:41;100136.72;;;24.84;77.21
43430;BME280;29028;43.234;27.896;2022-07-29T05:17:03;100138.63;;;24.83;76.97
43430;BME280;29028;43.234;27.896;2022-07-29T05:17:26;100149.41;;;24.75;76.91
43430;BME280;29028;43.234;27.896;2022-07-29T05:17:48;100146.38;;;24.81;77.18
43430;BME280;29028;43.234;27.896;2022-07-29T05:18:08;100143.28;;;24.88;77.28
43430;BME280;29028;43.234;27.896;2022-07-29T05:18:29;100138.84;;;24.92;77.20
43430;BME280;29028;43.234;27.896;2022-07-29T05:18:50;100142.34;;;25.02;76.00
43430;BME280;29028;43.234;27.896;2022-07-29T05:19:11;100128.53;;;25.07;75.09
43430;BME280;29028;43.234;27.896;2022-07-29T05:19:33;100146.81;;;24.98;75.33
43430;BME280;29028;43.234;27.896;2022-07-29T05:19:54;100136.63;;;24.94;75.43
43430;BME280;29028;43.234;27.896;2022-07-29T05:20:15;100139.09;;;24.95;76.12
43430;BME280;29028;43.234;27.896;2022-07-29T05:20:35;100131.94;;;24.94;76.06
43430;BME280;29028;43.234;27.896;2022-07-29T05:20:57;100137.25;;;24.81;75.27
43430;BME280;29028;43.234;27.896;2022-07-29T05:21:18;100151.53;;;24.88;75.03
43430;BME280;29028;43.234;27.896;2022-07-29T05:21:39;100144.97;;;24.84;74.99
43430;BME280;29028;43.234;27.896;2022-07-29T05:22:00;100137.50;;;24.84;75.32
43430;BME280;29028;43.234;27.896;2022-07-29T05:22:21;100146.34;;;24.86;75.57
43430;BME280;29028;43.234;27.896;2022-07-29T05:22:42;100145.72;;;24.94;75.57
43430;BME280;29028;43.234;27.896;2022-07-29T05:23:03;100138.81;;;24.97;75.55
43430;BME280;29028;43.234;27.896;2022-07-29T05:23:25;100141.78;;;25.10;75.14
43430;BME280;29028;43.234;27.896;2022-07-29T05:23:46;100141.47;;;25.17;75.00
43430;BME280;29028;43.234;27.896;2022-07-29T05:24:07;100147.75;;;25.22;74.48
43430;BME280;29028;43.234;27.896;2022-07-29T05:24:28;100144.72;;;25.24;74.35
43430;BME280;29028;43.234;27.896;2022-07-29T05:24:50;100142.22;;;25.27;74.40
43430;BME280;29028;43.234;27.896;2022-07-29T05:25:11;100141.66;;;25.30;74.54
43430;BME280;29028;43.234;27.896;2022-07-29T05:25:32;100131.66;;;25.39;73.76
43430;BME280;29028;43.234;27.896;2022-07-29T05:25:54;100128.34;;;25.42;73.26
43430;BME280;29028;43.234;27.896;2022-07-29T05:26:15;100142.84;;;25.53;73.50
43430;BME280;29028;43.234;27.896;2022-07-29T05:26:36;100135.66;;;25.57;73.34
43430;BME280;29028;43.234;27.896;2022-07-29T05:26:57;100136.38;;;25.67;72.76
43430;BME280;29028;43.234;27.896;2022-07-29T05:27:19;100122.97;;;25.56;72.94
43430;BME280;29028;43.234;27.896;2022-07-29T05:27:39;100137.47;;;25.66;72.76
43430;BME280;29028;43.234;27.896;2022-07-29T05:28:00;100142.16;;;25.71;72.70
43430;BME280;29028;43.234;27.896;2022-07-29T05:28:21;100137.56;;;25.56;72.33
43430;BME280;29028;43.234;27.896;2022-07-29T05:28:43;100143.09;;;25.56;72.70
43430;BME280;29028;43.234;27.896;2022-07-29T05:29:04;100146.16;;;25.55;72.87
43430;BME280;29028;43.234;27.896;2022-07-29T05:29:25;100135.88;;;25.60;73.11
43430;BME280;29028;43.234;27.896;2022-07-29T05:29:46;100134.22;;;25.64;72.94
43430;BME280;29028;43.234;27.896;2022-07-29T05:30:09;100131.97;;;25.66;72.99
43430;BME280;29028;43.234;27.896;2022-07-29T05:30:30;100139.03;;;25.77;73.28
43430;BME280;29028;43.234;27.896;2022-07-29T05:30:50;100138.44;;;25.85;72.78
43430;BME280;29028;43.234;27.896;2022-07-29T05:31:11;100140.59;;;25.88;72.79
43430;BME280;29028;43.234;27.896;2022-07-29T05:31:34;100129.00;;;25.91;71.93
43430;BME280;29028;43.234;27.896;2022-07-29T05:31:55;100135.88;;;25.94;71.24
43430;BME280;29028;43.234;27.896;2022-07-29T05:32:16;100139.81;;;25.83;71.47
43430;BME280;29028;43.234;27.896;2022-07-29T05:32:38;100138.09;;;25.92;70.83
43430;BME280;29028;43.234;27.896;2022-07-29T05:33:00;100136.19;;;25.87;71.28
43430;BME280;29028;43.234;27.896;2022-07-29T05:33:21;100145.53;;;25.96;71.18
43430;BME280;29028;43.234;27.896;2022-07-29T05:33:42;100136.06;;;26.02;71.44
43430;BME280;29028;43.234;27.896;2022-07-29T05:34:03;100142.13;;;26.04;71.44
43430;BME280;29028;43.234;27.896;2022-07-29T05:34:25;100135.19;;;26.07;71.09
43430;BME280;29028;43.234;27.896;2022-07-29T05:34:46;100134.06;;;26.08;70.70
43430;BME280;29028;43.234;27.896;2022-07-29T05:35:07;100131.03;;;26.09;70.87
43430;BME280;29028;43.234;27.896;2022-07-29T05:35:29;100136.50;;;26.14;69.75
43430;BME280;29028;43.234;27.896;2022-07-29T05:35:50;100134.75;;;26.23;68.39
43430;BME280;29028;43.234;27.896;2022-07-29T05:36:11;100143.53;;;26.25;68.49
43430;BME280;29028;43.234;27.896;2022-07-29T05:36:32;100136.38;;;26.24;68.68
43430;BME280;29028;43.234;27.896;2022-07-29T05:36:54;100135.78;;;26.27;69.29
43430;BME280;29028;43.234;27.896;2022-07-29T05:37:15;100136.38;;;26.24;69.50
43430;BME280;29028;43.234;27.896;2022-07-29T05:37:36;100140.56;;;26.22;69.39
43430;BME280;29028;43.234;27.896;2022-07-29T05:37:56;100137.84;;;26.17;69.27
43430;BME280;29028;43.234;27.896;2022-07-29T05:38:21;100134.13;;;26.03;69.81
43430;BME280;29028;43.234;27.896;2022-07-29T05:38:42;100135.47;;;26.05;69.61
43430;BME280;29028;43.234;27.896;2022-07-29T05:39:03;100140.88;;;26.15;69.89
43430;BME280;29028;43.234;27.896;2022-07-29T05:39:24;100137.53;;;25.90;68.62
43430;BME280;29028;43.234;27.896;2022-07-29T05:39:45;100134.78;;;25.95;68.97
43430;BME280;29028;43.234;27.896;2022-07-29T05:40:09;100130.38;;;25.89;69.56
43430;BME280;29028;43.234;27.896;2022-07-29T05:40:30;100125.47;;;25.81;69.35
43430;BME280;29028;43.234;27.896;2022-07-29T05:40:56;100124.97;;;25.79;69.15
43430;BME280;29028;43.234;27.896;2022-07-29T05:41:18;100135.00;;;25.98;69.33
43430;BME280;29028;43.234;27.896;2022-07-29T05:41:39;100137.44;;;26.05;69.52
43430;BME280;29028;43.234;27.896;2022-07-29T05:42:00;100142.00;;;26.14;69.37
43430;BME280;29028;43.234;27.896;2022-07-29T05:42:21;100146.06;;;26.22;69.44
43430;BME280;29028;43.234;27.896;2022-07-29T05:42:43;100141.31;;;26.27;69.60
43430;BME280;29028;43.234;27.896;2022-07-29T05:43:04;100143.19;;;26.32;69.26
43430;BME280;29028;43.234;27.896;2022-07-29T05:43:24;100141.19;;;26.37;68.53
43430;BME280;29028;43.234;27.896;2022-07-29T05:43:45;100137.00;;;26.40;68.66
43430;BME280;29028;43.234;27.896;2022-07-29T05:44:07;100141.41;;;26.41;68.16
43430;BME280;29028;43.234;27.896;2022-07-29T05:44:28;100140.78;;;26.25;67.49
43430;BME280;29028;43.234;27.896;2022-07-29T05:44:49;100136.53;;;26.09;67.26
43430;BME280;29028;43.234;27.896;2022-07-29T05:45:10;100141.03;;;26.00;66.87
43430;BME280;29028;43.234;27.896;2022-07-29T05:45:32;100136.25;;;26.11;67.66
43430;BME280;29028;43.234;27.896;2022-07-29T05:45:53;100138.69;;;26.17;67.97
43430;BME280;29028;43.234;27.896;2022-07-29T05:46:14;100141.06;;;26.24;68.01
43430;BME280;29028;43.234;27.896;2022-07-29T05:46:35;100141.25;;;26.32;66.54
43430;BME280;29028;43.234;27.896;2022-07-29T05:46:57;100135.94;;;26.36;66.37
43430;BME280;29028;43.234;27.896;2022-07-29T05:47:18;100136.66;;;26.46;67.09
43430;BME280;29028;43.234;27.896;2022-07-29T05:47:40;100143.22;;;26.55;67.43
43430;BME280;29028;43.234;27.896;2022-07-29T05:48:02;100136.81;;;26.60;67.08
43430;BME280;29028;43.234;27.896;2022-07-29T05:48:23;100134.56;;;26.62;66.30
43430;BME280;29028;43.234;27.896;2022-07-29T05:48:50;100130.47;;;26.54;63.11
43430;BME280;29028;43.234;27.896;2022-07-29T05:49:11;100137.41;;;26.52;62.58
43430;BME280;29028;43.234;27.896;2022-07-29T05:49:33;100142.03;;;26.61;63.72
43430;BME280;29028;43.234;27.896;2022-07-29T05:49:53;100131.50;;;26.63;64.54
43430;BME280;29028;43.234;27.896;2022-07-29T05:50:14;100138.03;;;26.72;65.27
43430;BME280;29028;43.234;27.896;2022-07-29T05:50:35;100140.47;;;26.74;63.56
43430;BME280;29028;43.234;27.896;2022-07-29T05:50:57;100139.31;;;26.80;62.07
43430;BME280;29028;43.234;27.896;2022-07-29T05:51:18;100135.09;;;26.82;62.24
43430;BME280;29028;43.234;27.896;2022-07-29T05:51:41;100137.59;;;26.60;64.51
43430;BME280;29028;43.234;27.896;2022-07-29T05:52:03;100142.66;;;26.53;65.13